Latest Coastal Weather Observations for Gold Coast Seaway

IDQ60701

Issued at 1:45 am EST Thursday 18 September 2014 (issued every 10 minutes, with the page automatically refreshed every 10 minutes)

About coastal observations | Map of coastal stations | Coastal observations for QLD | Marine services | Other Formats
Station Details ID: 040764 Name: GOLD COAST SEAWAY Lat: -27.94 Lon: 153.43 Height: 2.98 m
Data from the previous 72 hours. | See also: Recent months at Gold Coast Seaway
Date/Time
EST
Temp

°C
Wind Pressure Rain
since 9am
mm
Weather Cloud Vis
km
Sea
Height
m
Swell
Dir
 
Speed
knots
Gust
knots
hPa Trend Height
m
Period
s
Dir
18/01:30am 16.3 SW 6 7 1014.4 - 0.0 - - - - - - -
18/01:00am 15.8 SW 7 8 1014.7 - 0.0 - - - - - - -
18/12:30am 16.4 SW 6 8 1014.9 - 0.0 - - - - - - -
18/12:00am 15.1 NW 0 0 1015.0 - 0.0 - - - - - - -
 
Date/Time
EST
Temp

°C
Wind Pressure Rain
since 9am
mm
Weather Cloud Vis
km
Sea
Height
m
Swell
Dir
 
Speed
knots
Gust
knots
hPa Trend Height
m
Period
s
Dir
17/11:30pm 15.7 CALM 0 0 1015.0 - 0.0 - - - - - - -
17/11:00pm 16.3 NW 1 5 1014.9 - 0.0 - - - - - - -
17/10:30pm 17.0 NW 3 5 1014.6 - 0.0 - - - - - - -
17/10:00pm 18.4 NNW 5 6 1014.7 - 0.0 - - - - - - -
17/09:30pm 19.0 NNW 7 8 1014.5 - 0.0 - - - - - - -
17/09:00pm 19.3 NNW 8 10 1014.2 - 0.0 - - - - - - -
17/08:30pm 19.8 NNW 8 9 1013.9 - 0.0 - - - - - - -
17/08:00pm 20.2 N 9 12 1013.6 - 0.0 - - - - - - -
17/07:30pm 20.8 NNW 9 11 1013.4 - 0.0 - - - - - - -
17/07:00pm 21.3 NW 8 10 1012.9 - 0.0 - - - - - - -
17/06:30pm 21.5 NNW 9 10 1012.3 - 0.0 - - - - - - -
17/06:00pm 22.6 N 9 13 1011.6 - 0.0 - - - - - - -
17/05:30pm 25.7 W 10 13 1010.9 - 0.0 - - - - - - -
17/05:00pm 26.8 W 10 14 1010.6 - 0.0 - - - - - - -
17/04:30pm 27.3 W 13 17 1010.3 - 0.0 - - - - - - -
17/04:00pm 27.8 WNW 15 21 1010.0 - 0.0 - - - - - - -
17/03:30pm 28.0 WNW 15 20 1010.0 - 0.0 - - - - - - -
17/03:00pm 28.4 NW 11 16 1010.2 - 0.0 - - - - - - -
17/02:30pm 27.9 NW 13 19 1010.3 - 0.0 - - - - - - -
17/02:00pm 27.5 WNW 14 19 1010.8 - 0.0 - - - - - - -
17/01:30pm 27.6 WNW 15 21 1011.1 - 0.0 - - - - - - -
17/01:00pm 27.4 NW 13 19 1011.7 - 0.0 - - - - - - -
17/12:30pm 26.7 W 12 17 1012.1 - 0.0 - - - - - - -
17/12:00pm 26.5 WNW 13 18 1012.5 - 0.0 - - - - - - -
17/11:30am 26.1 W 13 18 1013.1 - 0.0 - - - - - - -
17/11:00am 25.9 WNW 15 20 1013.6 - 0.0 - - - - - - -
17/10:30am 25.0 W 12 20 1014.1 - 0.0 - - - - - - -
17/10:00am 24.6 W 12 18 1014.4 - 0.0 - - - - - - -
17/09:30am 24.2 W 12 17 1014.7 - 0.0 - - - - - - -
17/09:00am 23.2 W 11 17 1014.9 - - - - - - - - -
17/08:30am 21.4 WNW 7 9 1014.9 - - - - - - - - -
17/08:00am 20.2 NW 7 9 1015.0 - - - - - - - - -
17/07:30am 18.9 NW 10 12 1014.8 - - - - - - - - -
17/07:00am 18.0 NW 10 13 1014.3 - - - - - - - - -
17/06:30am 17.4 NW 10 13 1013.9 - - - - - - - - -
17/06:00am 17.0 NW 11 13 1013.5 - - - - - - - - -
17/05:30am 17.2 NW 11 14 1013.2 - - - - - - - - -
17/05:00am 17.9 NNW 11 15 1012.8 - - - - - - - - -
17/04:30am 17.9 NNW 12 15 1012.8 - - - - - - - - -
17/04:00am 18.2 NW 13 14 1012.4 - - - - - - - - -
17/03:30am 18.2 NW 11 14 1012.2 - - - - - - - - -
17/03:00am 18.3 NNW 9 13 1012.0 - 0.0 - - - - - - -
17/02:30am 18.5 NNW 10 13 1012.1 - - - - - - - - -
17/02:00am 18.8 NW 11 15 1012.4 - - - - - - - - -
17/01:30am 18.6 NW 10 13 1012.5 - - - - - - - - -
17/01:00am 19.1 NW 9 10 1012.7 - - - - - - - - -
17/12:30am 19.5 NNW 8 10 1012.8 - - - - - - - - -
17/12:00am 19.7 NNW 8 12 1012.8 - - - - - - - - -
 
Date/Time
EST
Temp

°C
Wind Pressure Rain
since 9am
mm
Weather Cloud Vis
km
Sea
Height
m
Swell
Dir
 
Speed
knots
Gust
knots
hPa Trend Height
m
Period
s
Dir
16/11:30pm 20.0 N 9 13 1013.1 - - - - - - - - -
16/11:00pm 20.0 NNW 9 14 1013.0 - - - - - - - - -
16/10:30pm 19.9 NNW 7 10 1013.2 - - - - - - - - -
16/10:00pm 19.6 NW 3 4 1013.1 - - - - - - - - -
16/09:30pm 20.7 NNW 5 9 1013.0 - - - - - - - - -
16/09:00pm 20.5 N 7 12 1012.8 - 0.2 - - - - - - -
16/08:30pm 20.8 N 9 13 1012.7 - - - - - - - - -
16/08:00pm 20.8 N 11 18 1012.5 - - - - - - - - -
16/07:30pm 20.6 N 11 15 1012.4 - - - - - - - - -
16/07:00pm 21.1 NNW 9 16 1012.8 - - - - - - - - -
16/06:30pm 21.3 NNW 10 15 1012.1 - - - - - - - - -
16/06:00pm 21.2 N 10 14 1011.3 - - - - - - - - -
16/05:30pm 21.7 N 9 16 1011.5 - - - - - - - - -
16/05:00pm 21.4 N 16 19 1010.9 - - - - - - - - -
16/04:30pm 22.0 N 17 21 1010.7 - - - - - - - - -
16/04:00pm 22.4 N 17 22 1010.9 - - - - - - - - -
16/03:30pm 22.5 N 17 19 1010.8 - - - - - - - - -
16/03:00pm 22.8 N 16 18 1011.0 - - - - - - - - -
16/02:30pm 22.9 N 18 20 1011.1 - 0.0 - - - - - - -
16/02:00pm 23.6 NNE 18 20 1011.5 - 0.0 - - - - - - -
16/01:30pm 25.3 N 15 21 1012.0 - 0.0 - - - - - - -
16/01:00pm 25.4 N 15 21 1012.5 - 0.0 - - - - - - -
16/12:30pm 25.3 N 15 17 1013.1 - 0.0 - - - - - - -
16/12:00pm 24.1 NNE 14 17 1013.8 - 0.0 - - - - - - -
16/11:30am 23.6 N 14 15 1014.4 - 0.0 - - - - - - -
16/11:00am 23.6 NNE 12 15 1015.0 - 0.0 - - - - - - -
16/10:30am 22.7 N 13 16 1015.4 - 0.0 - - - - - - -
16/10:00am 23.0 NNW 10 15 1016.0 - 0.0 - - - - - - -
16/09:30am 22.5 N 10 14 1016.6 - 0.0 - - - - - - -
16/09:00am 21.0 N 9 12 1016.6 - 3.8 - - - - - - -
16/08:30am 19.9 N 9 12 1016.8 - 3.8 - - - - - - -
16/08:00am 18.8 NNW 8 13 1016.9 - 3.8 - - - - - - -
16/07:30am 17.9 NNW 8 11 1016.8 - 3.8 - - - - - - -
16/07:00am 17.1 NNW 8 11 1016.5 - 3.8 - - - - - - -
16/06:30am 16.4 NNW 8 11 1016.3 - 3.8 - - - - - - -
16/06:00am 16.0 NW 6 8 1016.3 - 3.8 - - - - - - -
16/05:30am 16.0 NW 6 8 1016.0 - 3.8 - - - - - - -
16/05:00am 15.7 NW 6 6 1015.8 - 3.8 - - - - - - -
16/04:30am 15.4 WNW 5 7 1015.7 - 3.8 - - - - - - -
16/04:00am 15.6 WNW 5 6 1015.5 - 3.6 - - - - - - -
16/03:30am 15.6 WNW 6 6 1015.4 - 3.6 - - - - - - -
16/03:00am 15.4 NW 4 5 1015.3 - 3.6 - - - - - - -
16/02:30am 15.8 NNW 5 6 1015.2 - 3.6 - - - - - - -
16/02:00am 15.6 SSW 3 5 1015.5 - 3.6 - - - - - - -
16/01:30am 15.6 SSW 4 4 1015.8 - 3.6 - - - - - - -
16/01:00am 15.8 SSW 5 6 1015.9 - 3.6 - - - - - - -
16/12:30am 16.0 SSW 5 5 1016.1 - 3.6 - - - - - - -
16/12:00am 16.0 W 4 5 1016.2 - 3.6 - - - - - - -
 
Date/Time
EST
Temp

°C
Wind Pressure Rain
since 9am
mm
Weather Cloud Vis
km
Sea
Height
m
Swell
Dir
 
Speed
knots
Gust
knots
hPa Trend Height
m
Period
s
Dir
15/11:30pm 16.5 W 4 5 1016.4 - 3.6 - - - - - - -
15/11:00pm 16.3 W 3 4 1016.4 - 3.6 - - - - - - -
15/10:30pm 17.0 W 4 5 1016.4 - 3.6 - - - - - - -
15/10:00pm 17.2 W 4 5 1016.5 - 3.6 - - - - - - -
15/09:30pm 17.8 NNW 5 7 1016.4 - 3.6 - - - - - - -
15/09:00pm 18.3 N 6 8 1016.5 - 3.6 - - - - - - -
15/08:30pm 18.5 NNW 7 9 1016.4 - 3.6 - - - - - - -
15/08:00pm 18.5 WNW 7 8 1016.3 - 3.6 - - - - - - -
15/07:30pm 19.0 NNW 9 13 1016.1 - 3.6 - - - - - - -
15/07:00pm 19.6 N 13 17 1015.8 - 3.6 - - - - - - -
15/06:30pm 19.3 N 5 12 1015.6 - 3.6 - - - - - - -
15/06:00pm 18.9 E 17 20 1014.6 - 3.6 Recent precip. - - - - - -
15/05:49pm 18.9 ENE 16 22 1014.3 - 3.6 - - - - - - -
15/05:30pm 19.1 SSW 9 13 1016.3 - 1.2 - - - - - - -
15/05:00pm 20.6 N 15 20 1015.5 - 0.2 - - - - - - -
15/04:30pm 20.9 N 19 23 1014.2 - 0.2 - - - - - - -
15/04:00pm 21.2 NNE 18 21 1013.9 - 0.2 - - - - - - -
15/03:30pm 22.0 NNE 19 22 1013.9 - 0.2 - - - - - - -
15/03:00pm 21.8 NNE 19 22 1013.8 - 0.2 - - - - - - -
15/02:30pm 23.1 NNE 17 20 1014.2 - 0.2 - - - - - - -
15/02:00pm 24.1 NNE 16 18 1014.6 - 0.2 - - - - - - -
15/01:30pm 24.2 NNE 15 17 1015.0 - 0.2 - - - - - - -
15/01:00pm 24.2 NNE 14 16 1015.4 - 0.2 - - - - - - -
15/12:30pm 25.2 NNE 13 19 1016.0 - 0.2 - - - - - - -
15/12:00pm 25.8 N 11 14 1016.4 - 0.2 - - - - - - -
15/11:30am 24.9 N 10 15 1017.0 - 0.2 - - - - - - -
15/11:00am 24.0 N 11 14 1017.5 - 0.2 - - - - - - -
15/10:30am 23.2 N 11 14 1018.1 - 0.0 - - - - - - -
15/10:00am 22.5 NW 11 15 1018.5 - 0.0 - - - - - - -
15/09:30am 21.6 NW 13 17 1018.8 - 0.0 - - - - - - -
15/09:00am 20.8 NW 8 12 1019.1 - 0.2 - - - - - - -
15/08:30am 20.2 NW 8 11 1019.3 - 0.2 - - - - - - -
15/08:00am 19.2 N 8 10 1019.2 - 0.2 - - - - - - -
15/07:30am 18.0 NW 6 7 1019.2 - 0.2 - - - - - - -
15/07:00am 16.8 WNW 7 7 1019.2 - 0.2 - - - - - - -
15/06:30am 15.8 NW 6 7 1018.8 - 0.2 - - - - - - -
15/06:00am 14.8 NW 5 7 1018.5 - 0.2 - - - - - - -
15/05:30am 14.2 WNW 5 6 1018.2 - 0.2 - - - - - - -
15/05:00am 14.9 NW 6 7 1018.2 - 0.2 - - - - - - -
15/04:30am 14.9 NW 4 6 1018.0 - 0.2 - - - - - - -
15/04:00am 15.3 NW 5 7 1017.7 - 0.2 - - - - - - -
15/03:30am 15.1 NW 6 7 1018.0 - 0.2 - - - - - - -
15/03:00am 15.3 NW 6 7 1017.9 - 0.2 - - - - - - -
15/02:30am 14.8 NW 4 6 1018.2 - 0.2 - - - - - - -
15/02:00am 15.2 WNW 5 6 1018.5 - 0.2 - - - - - - -

Other Formats:

Comma delimited format used in spreadsheet applications
http://www.bom.gov.au/fwo/IDQ60701/IDQ60701.94580.axf

JavaScript Object Notation format (JSON) in row-major order
http://www.bom.gov.au/fwo/IDQ60701/IDQ60701.94580.json